sensor_id;sensor_type;location;lat;lon;timestamp;pressure;altitude;pressure_sealevel;temperature;humidity
5679;BME280;2862;52.560;13.566;2023-03-14T00:06:27;98368.06;;;12.31;88.80
5679;BME280;2862;52.560;13.566;2023-03-14T00:16:30;98357.03;;;12.12;89.69
5679;BME280;2862;52.560;13.566;2023-03-14T00:26:35;98328.09;;;12.01;90.35
5679;BME280;2862;52.560;13.566;2023-03-14T00:36:39;98318.38;;;11.93;91.07
5679;BME280;2862;52.560;13.566;2023-03-14T00:46:44;98286.81;;;11.89;91.71
5679;BME280;2862;52.560;13.566;2023-03-14T00:56:47;98292.81;;;11.69;93.17
5679;BME280;2862;52.560;13.566;2023-03-14T01:06:51;98260.81;;;11.55;94.77
5679;BME280;2862;52.560;13.566;2023-03-14T01:16:54;98261.00;;;11.53;95.21
5679;BME280;2862;52.560;13.566;2023-03-14T01:27:03;98298.91;;;11.35;96.64
5679;BME280;2862;52.560;13.566;2023-03-14T01:37:06;98318.66;;;11.34;96.65
5679;BME280;2862;52.560;13.566;2023-03-14T01:47:12;98330.69;;;11.45;96.59
5679;BME280;2862;52.560;13.566;2023-03-14T01:57:19;98348.50;;;11.53;95.94
5679;BME280;2862;52.560;13.566;2023-03-14T02:07:30;98332.44;;;11.53;96.19
5679;BME280;2862;52.560;13.566;2023-03-14T02:17:44;98306.88;;;11.50;96.12
5679;BME280;2862;52.560;13.566;2023-03-14T02:27:57;98290.97;;;11.42;96.74
5679;BME280;2862;52.560;13.566;2023-03-14T02:38:08;98275.22;;;11.32;96.97
5679;BME280;2862;52.560;13.566;2023-03-14T02:48:19;98275.50;;;11.37;96.55
5679;BME280;2862;52.560;13.566;2023-03-14T02:58:24;98256.50;;;11.32;96.78
5679;BME280;2862;52.560;13.566;2023-03-14T03:08:35;98228.63;;;11.20;96.79
5679;BME280;2862;52.560;13.566;2023-03-14T03:18:40;98189.59;;;11.04;97.71
5679;BME280;2862;52.560;13.566;2023-03-14T03:28:45;98180.75;;;11.04;97.61
5679;BME280;2862;52.560;13.566;2023-03-14T03:38:50;98204.63;;;11.05;97.22
5679;BME280;2862;52.560;13.566;2023-03-14T03:48:56;98210.75;;;10.99;97.46
5679;BME280;2862;52.560;13.566;2023-03-14T03:59:01;98194.91;;;10.98;97.18
5679;BME280;2862;52.560;13.566;2023-03-14T04:09:05;98199.38;;;10.90;97.13
5679;BME280;2862;52.560;13.566;2023-03-14T04:19:29;98201.34;;;10.82;97.41
5679;BME280;2862;52.560;13.566;2023-03-14T04:29:34;98183.44;;;10.82;96.87
5679;BME280;2862;52.560;13.566;2023-03-14T04:39:37;98186.56;;;10.86;96.18
5679;BME280;2862;52.560;13.566;2023-03-14T04:50:11;98162.63;;;10.78;96.04
5679;BME280;2862;52.560;13.566;2023-03-14T05:00:15;98137.50;;;10.72;95.81
5679;BME280;2862;52.560;13.566;2023-03-14T05:10:41;98147.00;;;10.75;95.29
5679;BME280;2862;52.560;13.566;2023-03-14T05:20:50;98142.03;;;10.72;94.73
5679;BME280;2862;52.560;13.566;2023-03-14T05:31:15;98127.22;;;10.69;94.26
5679;BME280;2862;52.560;13.566;2023-03-14T05:41:43;98114.69;;;10.70;93.61
5679;BME280;2862;52.560;13.566;2023-03-14T05:52:01;98127.66;;;10.73;92.22
5679;BME280;2862;52.560;13.566;2023-03-14T06:02:27;98121.59;;;10.85;90.58
5679;BME280;2862;52.560;13.566;2023-03-14T06:12:39;98112.16;;;10.89;88.67
5679;BME280;2862;52.560;13.566;2023-03-14T06:22:42;98120.13;;;11.11;86.84
5679;BME280;2862;52.560;13.566;2023-03-14T06:32:48;98139.72;;;11.18;85.58
5679;BME280;2862;52.560;13.566;2023-03-14T06:42:54;98126.88;;;11.35;83.88
5679;BME280;2862;52.560;13.566;2023-03-14T06:53:00;98135.69;;;11.63;82.39
5679;BME280;2862;52.560;13.566;2023-03-14T07:03:13;98138.78;;;12.08;79.51
5679;BME280;2862;52.560;13.566;2023-03-14T07:13:20;98170.66;;;12.44;77.20
5679;BME280;2862;52.560;13.566;2023-03-14T07:23:38;98185.06;;;12.43;77.02
5679;BME280;2862;52.560;13.566;2023-03-14T07:33:44;98173.38;;;12.71;75.30
5679;BME280;2862;52.560;13.566;2023-03-14T07:43:48;98170.34;;;13.27;73.54
5679;BME280;2862;52.560;13.566;2023-03-14T07:53:52;98187.25;;;13.08;73.13
5679;BME280;2862;52.560;13.566;2023-03-14T08:03:55;98190.31;;;13.11;72.74
5679;BME280;2862;52.560;13.566;2023-03-14T08:13:59;98172.69;;;13.95;69.55
5679;BME280;2862;52.560;13.566;2023-03-14T08:24:03;98155.09;;;13.92;69.14
5679;BME280;2862;52.560;13.566;2023-03-14T08:34:07;98166.41;;;13.36;71.81
5679;BME280;2862;52.560;13.566;2023-03-14T08:44:10;98170.94;;;13.09;72.70
5679;BME280;2862;52.560;13.566;2023-03-14T08:54:15;98187.44;;;12.93;73.91
5679;BME280;2862;52.560;13.566;2023-03-14T09:04:17;98187.66;;;12.98;73.58
5679;BME280;2862;52.560;13.566;2023-03-14T09:14:22;98181.63;;;12.76;73.78
5679;BME280;2862;52.560;13.566;2023-03-14T09:24:25;98165.78;;;13.14;73.36
5679;BME280;2862;52.560;13.566;2023-03-14T09:34:29;98161.38;;;14.69;66.32
5679;BME280;2862;52.560;13.566;2023-03-14T09:44:35;98162.34;;;15.31;62.76
5679;BME280;2862;52.560;13.566;2023-03-14T09:54:43;98167.53;;;15.51;60.53
5679;BME280;2862;52.560;13.566;2023-03-14T10:04:48;98172.47;;;14.41;63.10
5679;BME280;2862;52.560;13.566;2023-03-14T10:14:53;98173.31;;;13.90;65.21
5679;BME280;2862;52.560;13.566;2023-03-14T10:24:59;98180.81;;;13.62;65.80
5679;BME280;2862;52.560;13.566;2023-03-14T10:35:23;98182.50;;;13.49;65.58
5679;BME280;2862;52.560;13.566;2023-03-14T10:45:36;98181.66;;;13.62;65.79
5679;BME280;2862;52.560;13.566;2023-03-14T10:55:43;98176.94;;;13.44;65.31
5679;BME280;2862;52.560;13.566;2023-03-14T11:05:50;98191.38;;;13.43;64.56
5679;BME280;2862;52.560;13.566;2023-03-14T11:16:06;98187.25;;;13.41;65.63
5679;BME280;2862;52.560;13.566;2023-03-14T11:26:20;98178.97;;;13.55;64.49
5679;BME280;2862;52.560;13.566;2023-03-14T11:36:33;98177.50;;;13.53;64.79
5679;BME280;2862;52.560;13.566;2023-03-14T11:46:42;98173.41;;;13.50;66.13
5679;BME280;2862;52.560;13.566;2023-03-14T11:56:52;98159.13;;;13.57;66.36
5679;BME280;2862;52.560;13.566;2023-03-14T12:07:02;98158.44;;;13.81;67.77
5679;BME280;2862;52.560;13.566;2023-03-14T12:17:18;98150.72;;;14.04;68.16
5679;BME280;2862;52.560;13.566;2023-03-14T12:27:44;98151.13;;;14.08;68.88
5679;BME280;2862;52.560;13.566;2023-03-14T12:37:52;98143.13;;;13.95;70.04
5679;BME280;2862;52.560;13.566;2023-03-14T12:48:15;98145.84;;;13.88;70.54
5679;BME280;2862;52.560;13.566;2023-03-14T12:58:27;98135.06;;;13.95;71.85
5679;BME280;2862;52.560;13.566;2023-03-14T13:08:36;98124.75;;;13.92;72.52
5679;BME280;2862;52.560;13.566;2023-03-14T13:18:43;98126.69;;;13.58;75.02
5679;BME280;2862;52.560;13.566;2023-03-14T13:28:47;98135.63;;;13.06;82.97
5679;BME280;2862;52.560;13.566;2023-03-14T13:38:57;98123.47;;;12.90;89.58
5679;BME280;2862;52.560;13.566;2023-03-14T13:49:03;98093.94;;;13.43;85.59
5679;BME280;2862;52.560;13.566;2023-03-14T13:59:22;98097.81;;;13.60;84.32
5679;BME280;2862;52.560;13.566;2023-03-14T14:09:27;98091.81;;;13.58;81.67
5679;BME280;2862;52.560;13.566;2023-03-14T14:19:34;98082.81;;;13.91;76.77
5679;BME280;2862;52.560;13.566;2023-03-14T14:29:38;98075.47;;;14.11;76.06
5679;BME280;2862;52.560;13.566;2023-03-14T14:39:46;98075.59;;;13.85;76.99
5679;BME280;2862;52.560;13.566;2023-03-14T14:49:51;98071.13;;;13.72;78.29
5679;BME280;2862;52.560;13.566;2023-03-14T15:00:00;98059.88;;;13.88;76.78
5679;BME280;2862;52.560;13.566;2023-03-14T15:10:09;98053.63;;;13.56;74.89
5679;BME280;2862;52.560;13.566;2023-03-14T15:20:16;98057.00;;;13.32;76.31
5679;BME280;2862;52.560;13.566;2023-03-14T15:30:19;98232.56;;;12.76;76.52
5679;BME280;2862;52.560;13.566;2023-03-14T15:40:24;98338.19;;;8.82;86.37
5679;BME280;2862;52.560;13.566;2023-03-14T15:50:31;98402.56;;;6.75;90.40
5679;BME280;2862;52.560;13.566;2023-03-14T16:00:35;98476.84;;;5.71;89.53
5679;BME280;2862;52.560;13.566;2023-03-14T16:10:39;98513.03;;;4.52;94.15
5679;BME280;2862;52.560;13.566;2023-03-14T16:20:51;98617.66;;;4.28;93.50
5679;BME280;2862;52.560;13.566;2023-03-14T16:30:59;98690.75;;;3.59;94.52
5679;BME280;2862;52.560;13.566;2023-03-14T16:41:05;98731.50;;;3.97;92.86
5679;BME280;2862;52.560;13.566;2023-03-14T16:51:08;98756.75;;;3.80;92.43
5679;BME280;2862;52.560;13.566;2023-03-14T17:01:14;98806.97;;;3.80;94.78
5679;BME280;2862;52.560;13.566;2023-03-14T17:11:27;98863.03;;;4.05;93.11
5679;BME280;2862;52.560;13.566;2023-03-14T17:21:36;98929.34;;;4.43;92.41
5679;BME280;2862;52.560;13.566;2023-03-14T17:31:39;98965.16;;;4.47;91.69
5679;BME280;2862;52.560;13.566;2023-03-14T17:41:45;99015.00;;;4.52;90.87
5679;BME280;2862;52.560;13.566;2023-03-14T17:51:48;99036.47;;;4.79;92.49
5679;BME280;2862;52.560;13.566;2023-03-14T18:01:52;99074.50;;;4.78;92.46
5679;BME280;2862;52.560;13.566;2023-03-14T18:11:55;99113.31;;;4.68;92.99
5679;BME280;2862;52.560;13.566;2023-03-14T18:22:09;99127.84;;;4.74;94.77
5679;BME280;2862;52.560;13.566;2023-03-14T18:32:12;99167.38;;;4.66;94.50
5679;BME280;2862;52.560;13.566;2023-03-14T18:42:17;99188.19;;;4.70;95.69
5679;BME280;2862;52.560;13.566;2023-03-14T18:52:20;99210.06;;;4.72;95.38
5679;BME280;2862;52.560;13.566;2023-03-14T19:02:26;99234.13;;;4.69;96.56
5679;BME280;2862;52.560;13.566;2023-03-14T19:12:31;99268.72;;;4.57;98.35
5679;BME280;2862;52.560;13.566;2023-03-14T19:22:36;99282.13;;;4.44;98.76
5679;BME280;2862;52.560;13.566;2023-03-14T19:32:38;99305.09;;;4.43;96.74
5679;BME280;2862;52.560;13.566;2023-03-14T19:42:43;99333.00;;;4.47;95.76
5679;BME280;2862;52.560;13.566;2023-03-14T19:52:46;99362.19;;;4.57;95.87
5679;BME280;2862;52.560;13.566;2023-03-14T20:02:51;99380.03;;;4.44;95.46
5679;BME280;2862;52.560;13.566;2023-03-14T20:12:55;99416.13;;;4.34;93.07
5679;BME280;2862;52.560;13.566;2023-03-14T20:23:01;99441.03;;;4.31;90.68
5679;BME280;2862;52.560;13.566;2023-03-14T20:33:06;99466.03;;;4.27;88.20
5679;BME280;2862;52.560;13.566;2023-03-14T20:43:10;99491.88;;;4.23;88.38
5679;BME280;2862;52.560;13.566;2023-03-14T20:53:17;99516.63;;;4.11;88.22
5679;BME280;2862;52.560;13.566;2023-03-14T21:03:23;99525.44;;;3.88;85.43
5679;BME280;2862;52.560;13.566;2023-03-14T21:13:26;99534.97;;;3.90;86.14
5679;BME280;2862;52.560;13.566;2023-03-14T21:23:34;99555.88;;;3.93;81.85
5679;BME280;2862;52.560;13.566;2023-03-14T21:33:37;99575.91;;;3.85;83.37
5679;BME280;2862;52.560;13.566;2023-03-14T21:43:42;99600.44;;;3.63;78.70
5679;BME280;2862;52.560;13.566;2023-03-14T21:53:46;99614.63;;;3.62;78.67
5679;BME280;2862;52.560;13.566;2023-03-14T22:03:50;99649.53;;;3.41;79.36
5679;BME280;2862;52.560;13.566;2023-03-14T22:13:54;99657.53;;;3.53;79.15
5679;BME280;2862;52.560;13.566;2023-03-14T22:23:59;99671.19;;;3.46;78.40
5679;BME280;2862;52.560;13.566;2023-03-14T22:34:02;99676.38;;;3.48;80.98
5679;BME280;2862;52.560;13.566;2023-03-14T22:44:06;99701.31;;;3.31;79.31
5679;BME280;2862;52.560;13.566;2023-03-14T22:54:08;99718.78;;;3.34;80.17
5679;BME280;2862;52.560;13.566;2023-03-14T23:04:12;99740.13;;;3.05;80.67
5679;BME280;2862;52.560;13.566;2023-03-14T23:14:15;99750.97;;;3.01;79.65
5679;BME280;2862;52.560;13.566;2023-03-14T23:24:20;99760.94;;;3.23;82.05
5679;BME280;2862;52.560;13.566;2023-03-14T23:34:23;99771.38;;;3.11;80.06
5679;BME280;2862;52.560;13.566;2023-03-14T23:44:29;99790.19;;;3.07;79.39
5679;BME280;2862;52.560;13.566;2023-03-14T23:54:33;99808.84;;;3.04;79.29
